createdAt,value
2019-05-13T00:01:07.132Z,8.70
2019-05-13T00:03:57.933Z,8.70
2019-05-13T00:06:53.533Z,8.60
2019-05-13T00:09:39.637Z,8.60
2019-05-13T00:12:31.150Z,8.70
2019-05-13T00:15:21.115Z,8.70
2019-05-13T00:18:11.253Z,8.70
2019-05-13T00:21:00.893Z,8.70
2019-05-13T00:23:53.408Z,8.70
2019-05-13T00:26:44.528Z,8.70
2019-05-13T00:29:34.452Z,8.70
2019-05-13T00:32:24.551Z,8.80
2019-05-13T00:35:14.473Z,8.80
2019-05-13T00:38:04.868Z,8.80
2019-05-13T00:40:55.287Z,8.80
2019-05-13T00:43:45.342Z,8.80
2019-05-13T00:46:35.449Z,8.80
2019-05-13T00:49:25.301Z,8.80
2019-05-13T00:52:15.247Z,8.80
2019-05-13T00:55:05.973Z,8.80
2019-05-13T00:57:55.558Z,8.80
2019-05-13T01:00:45.941Z,8.70
2019-05-13T01:03:35.804Z,8.70
2019-05-13T01:06:25.440Z,8.70
2019-05-13T01:09:15.755Z,8.70
2019-05-13T01:12:06.772Z,8.70
2019-05-13T01:14:56.581Z,8.70
2019-05-13T01:17:46.621Z,8.70
2019-05-13T01:20:36.041Z,8.70
2019-05-13T01:23:26.140Z,8.70
2019-05-13T01:26:15.981Z,8.70
2019-05-13T01:29:06.943Z,8.70
2019-05-13T01:31:56.402Z,8.80
2019-05-13T01:34:46.355Z,8.80
2019-05-13T01:37:42.372Z,8.80
2019-05-13T01:40:28.277Z,8.80
2019-05-13T01:43:17.924Z,8.80
2019-05-13T01:46:08.165Z,8.80
2019-05-13T01:48:58.302Z,8.80
2019-05-13T01:51:48.558Z,8.80
2019-05-13T01:54:38.210Z,8.80
2019-05-13T01:57:28.760Z,8.80
2019-05-13T02:00:39.601Z,8.80
2019-05-13T02:03:29.400Z,8.80
2019-05-13T02:06:19.135Z,8.80
2019-05-13T02:09:09.495Z,8.80
2019-05-13T02:11:58.798Z,8.80
2019-05-13T02:14:48.818Z,8.80
2019-05-13T02:17:38.277Z,8.80
2019-05-13T02:20:28.217Z,8.80
2019-05-13T02:23:17.520Z,8.80
2019-05-13T02:26:07.879Z,8.80
2019-05-13T02:28:57.795Z,8.80
2019-05-13T02:31:52.052Z,8.80
2019-05-13T02:34:43.333Z,8.80
2019-05-13T02:37:34.341Z,8.80
2019-05-13T02:40:22.883Z,8.80
2019-05-13T02:43:13.538Z,8.80
2019-05-13T02:46:05.950Z,8.80
2019-05-13T02:48:55.414Z,8.70
2019-05-13T02:51:45.501Z,8.70
2019-05-13T02:54:35.666Z,8.70
2019-05-13T02:57:25.500Z,8.70
2019-05-13T03:00:15.524Z,8.70
2019-05-13T03:03:05.746Z,8.70
2019-05-13T03:05:56.325Z,8.70
2019-05-13T03:08:50.183Z,8.60
2019-05-13T03:11:37.875Z,8.60
2019-05-13T03:14:28.214Z,8.60
2019-05-13T03:17:24.214Z,8.70
2019-05-13T03:20:16.778Z,8.70
2019-05-13T03:23:06.084Z,8.70
2019-05-13T03:25:56.330Z,8.60
2019-05-13T03:28:46.480Z,8.60
2019-05-13T03:31:36.576Z,8.60
2019-05-13T03:34:27.604Z,8.60
2019-05-13T03:37:18.769Z,8.70
2019-05-13T03:40:09.052Z,8.70
2019-05-13T03:43:02.760Z,8.70
2019-05-13T03:45:55.053Z,8.70
2019-05-13T03:48:47.810Z,8.70
2019-05-13T03:51:38.270Z,8.70
2019-05-13T03:54:32.538Z,8.70
2019-05-13T03:57:23.242Z,8.70
2019-05-13T04:00:13.399Z,8.70
2019-05-13T04:03:04.690Z,8.70
2019-05-13T04:05:54.487Z,8.70
2019-05-13T04:08:44.849Z,8.70
2019-05-13T04:11:34.554Z,8.70
2019-05-13T04:14:24.370Z,8.60
2019-05-13T04:17:14.284Z,8.60
2019-05-13T04:20:05.095Z,8.60
2019-05-13T04:22:55.211Z,8.60
2019-05-13T04:25:45.051Z,8.60
2019-05-13T04:28:35.899Z,8.50
2019-05-13T04:31:25.494Z,8.60
2019-05-13T04:34:15.525Z,8.50
2019-05-13T04:37:05.354Z,8.50
2019-05-13T04:39:56.598Z,8.50
2019-05-13T04:42:47.008Z,8.40
2019-05-13T04:45:37.009Z,8.40
2019-05-13T04:48:26.649Z,8.40
2019-05-13T04:51:16.925Z,8.40
2019-05-13T04:54:06.776Z,8.40
2019-05-13T04:56:57.203Z,8.30
2019-05-13T04:59:47.142Z,8.30
2019-05-13T05:03:09.245Z,8.30
2019-05-13T05:06:22.640Z,8.30
2019-05-13T05:10:02.815Z,8.30
2019-05-13T05:13:23.994Z,8.30
2019-05-13T05:16:45.103Z,8.30
2019-05-13T05:20:15.095Z,8.30
2019-05-13T05:23:36.183Z,8.30
2019-05-13T05:27:01.377Z,8.40
2019-05-13T05:30:15.993Z,8.40
2019-05-13T05:33:57.169Z,8.40
2019-05-13T05:37:11.819Z,8.50
2019-05-13T05:40:03.891Z,8.60
2019-05-13T05:42:55.124Z,8.70
2019-05-13T05:45:44.780Z,8.70
2019-05-13T05:48:36.326Z,8.70
2019-05-13T05:51:28.053Z,8.70
2019-05-13T05:54:21.845Z,8.70
2019-05-13T05:57:12.281Z,8.70
2019-05-13T06:00:03.754Z,8.70
2019-05-13T06:02:55.169Z,8.70
2019-05-13T06:05:45.169Z,8.80
2019-05-13T06:08:34.784Z,8.70
2019-05-13T06:11:24.270Z,8.80
2019-05-13T06:14:14.129Z,8.80
2019-05-13T06:17:04.084Z,8.80
2019-05-13T06:19:54.290Z,8.80
2019-05-13T06:22:44.025Z,8.80
2019-05-13T06:25:33.956Z,8.80
2019-05-13T06:28:23.734Z,8.80
2019-05-13T06:31:13.630Z,8.80
2019-05-13T06:34:03.331Z,8.80
2019-05-13T06:36:53.568Z,8.80
2019-05-13T06:39:43.852Z,8.90
2019-05-13T06:42:34.665Z,8.90
2019-05-13T06:45:25.869Z,8.90
2019-05-13T06:48:15.789Z,8.90
2019-05-13T06:51:05.444Z,9.00
2019-05-13T06:53:55.090Z,9.00
2019-05-13T06:56:45.369Z,9.10
2019-05-13T06:59:35.729Z,9.20
2019-05-13T07:02:25.103Z,9.30
2019-05-13T07:05:15.254Z,9.40
2019-05-13T07:08:05.170Z,9.50
2019-05-13T07:10:54.791Z,9.60
2019-05-13T07:13:44.244Z,9.70
2019-05-13T07:16:34.043Z,9.70
2019-05-13T07:19:24.016Z,9.70
2019-05-13T07:22:14.205Z,9.80
2019-05-13T07:25:04.769Z,9.80
2019-05-13T07:27:54.954Z,9.90
2019-05-13T07:30:46.137Z,10.00
2019-05-13T07:33:36.099Z,10.00
2019-05-13T07:36:25.769Z,10.10
2019-05-13T07:39:15.265Z,10.20
2019-05-13T07:42:05.993Z,10.30
2019-05-13T07:44:56.050Z,10.30
2019-05-13T07:47:46.019Z,10.40
2019-05-13T07:50:51.488Z,10.50
2019-05-13T07:53:32.063Z,10.50
2019-05-13T07:56:22.574Z,10.50
2019-05-13T07:59:12.495Z,10.60
2019-05-13T08:02:02.736Z,10.60
2019-05-13T08:04:53.289Z,10.60
2019-05-13T08:07:43.090Z,10.60
2019-05-13T08:10:32.909Z,10.60
2019-05-13T08:13:22.955Z,10.60
2019-05-13T08:16:13.384Z,10.60
2019-05-13T08:19:03.189Z,10.60
2019-05-13T08:21:53.104Z,10.70
2019-05-13T08:24:42.612Z,10.70
2019-05-13T08:27:35.173Z,10.70
2019-05-13T08:30:24.786Z,10.90
2019-05-13T08:33:15.654Z,10.90
2019-05-13T08:36:05.524Z,11.00
2019-05-13T08:38:56.154Z,11.10
2019-05-13T08:41:47.413Z,11.20
2019-05-13T08:44:37.175Z,11.20
2019-05-13T08:47:26.659Z,11.40
2019-05-13T08:50:17.650Z,11.50
2019-05-13T08:53:07.575Z,11.60
2019-05-13T08:55:57.599Z,11.60
2019-05-13T08:58:47.414Z,11.70
2019-05-13T09:01:38.409Z,11.80
2019-05-13T09:04:28.532Z,12.00
2019-05-13T09:07:21.830Z,12.10
2019-05-13T09:10:12.491Z,12.20
2019-05-13T09:13:01.974Z,12.30
2019-05-13T09:15:52.694Z,12.40
2019-05-13T09:18:43.774Z,12.40
2019-05-13T09:21:33.313Z,12.40
2019-05-13T09:24:32.830Z,12.40
2019-05-13T09:27:14.724Z,12.30
2019-05-13T09:30:05.169Z,12.40
2019-05-13T09:32:55.423Z,12.50
2019-05-13T09:35:45.412Z,12.60
2019-05-13T09:38:35.252Z,12.70
2019-05-13T09:41:26.491Z,12.60
2019-05-13T09:44:15.894Z,12.40
2019-05-13T09:47:05.984Z,12.40
2019-05-13T09:49:56.231Z,12.40
2019-05-13T09:52:45.943Z,12.30
2019-05-13T09:55:35.519Z,12.20
2019-05-13T09:58:25.099Z,12.10
2019-05-13T10:01:15.114Z,12.00
2019-05-13T10:04:04.992Z,11.90
2019-05-13T10:06:54.534Z,11.90
2019-05-13T10:09:48.084Z,11.90
2019-05-13T10:12:35.891Z,12.00
2019-05-13T10:15:26.774Z,12.00
2019-05-13T10:18:16.396Z,12.20
2019-05-13T10:21:06.435Z,12.40
2019-05-13T10:23:58.905Z,12.50
2019-05-13T10:26:47.621Z,12.60
2019-05-13T10:29:38.073Z,12.70
2019-05-13T10:32:28.529Z,12.60
2019-05-13T10:35:18.377Z,12.50
2019-05-13T10:38:08.764Z,12.50
2019-05-13T10:40:59.262Z,12.50
2019-05-13T10:43:48.965Z,12.50
2019-05-13T10:46:39.160Z,12.60
2019-05-13T10:49:29.088Z,12.60
2019-05-13T10:52:19.035Z,12.60
2019-05-13T10:55:09.310Z,12.50
2019-05-13T10:58:01.623Z,12.50
2019-05-13T11:00:53.827Z,12.60
2019-05-13T11:03:44.634Z,12.50
2019-05-13T11:06:34.353Z,12.40
2019-05-13T11:09:26.465Z,12.30
2019-05-13T11:12:16.334Z,12.40
2019-05-13T11:15:08.609Z,12.40
2019-05-13T11:17:58.144Z,12.30
2019-05-13T11:20:48.174Z,12.40
2019-05-13T11:23:37.970Z,12.50
2019-05-13T11:26:28.112Z,12.60
2019-05-13T11:29:19.109Z,12.60
2019-05-13T11:32:09.280Z,12.70
2019-05-13T11:35:01.888Z,12.80
2019-05-13T11:37:52.216Z,12.80
2019-05-13T11:40:42.394Z,12.80
2019-05-13T11:43:33.107Z,12.80
2019-05-13T11:46:23.742Z,12.90
2019-05-13T11:49:13.600Z,13.00
2019-05-13T11:52:03.459Z,13.10
2019-05-13T11:55:05.456Z,13.20
2019-05-13T11:57:55.490Z,13.20
2019-05-13T12:01:02.526Z,13.30
2019-05-13T12:03:53.131Z,13.30
2019-05-13T12:06:48.055Z,13.50
2019-05-13T12:09:34.138Z,13.60
2019-05-13T12:15:28.075Z,14.10
2019-05-13T12:18:06.885Z,14.20
2019-05-13T12:20:56.690Z,14.30
2019-05-13T12:23:46.610Z,14.40
2019-05-13T12:26:36.995Z,14.40
2019-05-13T12:29:27.488Z,14.30
2019-05-13T12:32:18.030Z,14.10
2019-05-13T12:35:08.138Z,13.90
2019-05-13T12:37:58.053Z,13.80
2019-05-13T12:40:47.504Z,13.80
2019-05-13T12:43:38.089Z,13.60
2019-05-13T12:46:28.251Z,13.60
2019-05-13T12:49:21.468Z,13.60
2019-05-13T12:52:13.078Z,13.60
2019-05-13T12:55:03.243Z,13.60
2019-05-13T12:57:52.674Z,13.60
2019-05-13T13:00:43.657Z,13.50
2019-05-13T13:03:33.885Z,13.60
2019-05-13T13:06:32.143Z,13.70
2019-05-13T13:09:15.250Z,13.70
2019-05-13T13:12:05.265Z,13.80
2019-05-13T13:14:55.008Z,13.80
2019-05-13T13:17:45.050Z,13.80
2019-05-13T13:20:42.158Z,13.90
2019-05-13T13:23:26.448Z,13.90
2019-05-13T13:26:16.725Z,14.00
2019-05-13T13:29:06.215Z,14.00
2019-05-13T13:31:56.529Z,13.90
2019-05-13T13:34:46.448Z,13.80
2019-05-13T13:37:36.169Z,13.80
2019-05-13T13:40:29.753Z,13.70
2019-05-13T13:43:16.543Z,13.50
2019-05-13T13:46:16.486Z,13.50
2019-05-13T13:48:58.571Z,13.30
2019-05-13T13:51:48.325Z,13.20
2019-05-13T13:54:44.273Z,13.20
2019-05-13T13:57:32.524Z,13.20
2019-05-13T14:00:38.182Z,13.30
2019-05-13T14:03:16.515Z,13.30
2019-05-13T14:06:07.420Z,13.40
2019-05-13T14:06:31.861Z,13.80
2019-05-13T14:08:57.545Z,13.40
2019-05-13T14:11:47.664Z,13.40
2019-05-13T14:14:37.629Z,13.30
2019-05-13T14:17:27.649Z,13.30
2019-05-13T14:20:17.386Z,13.20
2019-05-13T14:23:07.689Z,13.20
2019-05-13T14:25:57.259Z,13.10
2019-05-13T14:28:47.414Z,13.00
2019-05-13T14:31:36.947Z,13.00
2019-05-13T14:34:27.249Z,12.90
2019-05-13T14:37:17.085Z,12.90
2019-05-13T14:40:07.974Z,12.90
2019-05-13T14:42:57.974Z,12.90
2019-05-13T14:45:51.873Z,12.90
2019-05-13T14:48:39.779Z,12.80
2019-05-13T14:51:32.255Z,12.80
2019-05-13T14:54:21.174Z,12.80
2019-05-13T14:57:12.638Z,12.80
2019-05-13T15:00:03.138Z,12.80
2019-05-13T15:02:52.873Z,12.70
2019-05-13T15:05:43.054Z,12.70
2019-05-13T15:08:33.251Z,12.80
2019-05-13T15:11:23.207Z,12.80
2019-05-13T15:14:13.189Z,12.80
2019-05-13T15:17:07.357Z,12.80
2019-05-13T15:19:54.149Z,12.80
2019-05-13T15:22:43.677Z,12.80
2019-05-13T15:25:33.409Z,12.70
2019-05-13T15:28:23.149Z,12.70
2019-05-13T15:31:12.699Z,12.70
2019-05-13T15:34:02.777Z,12.60
2019-05-13T15:36:53.624Z,12.60
2019-05-13T15:39:44.234Z,12.60
2019-05-13T15:42:33.899Z,12.60
2019-05-13T15:45:23.794Z,12.50
2019-05-13T15:48:13.634Z,12.40
2019-05-13T15:51:04.053Z,12.30
2019-05-13T15:53:53.569Z,12.20
2019-05-13T15:56:43.361Z,12.10
2019-05-13T15:59:33.270Z,12.00
2019-05-13T16:02:22.990Z,12.00
2019-05-13T16:05:13.278Z,11.90
2019-05-13T16:08:03.308Z,11.80
2019-05-13T16:10:53.631Z,11.70
2019-05-13T16:13:45.179Z,11.70
2019-05-13T16:16:34.970Z,11.70
2019-05-13T16:19:25.029Z,11.60
2019-05-13T16:22:14.864Z,11.60
2019-05-13T16:25:05.976Z,11.50
2019-05-13T16:27:56.310Z,11.50
2019-05-13T16:30:46.458Z,11.40
2019-05-13T16:33:36.164Z,11.30
2019-05-13T16:36:25.979Z,11.20
2019-05-13T16:39:15.839Z,11.10
2019-05-13T16:42:06.570Z,11.10
2019-05-13T16:44:57.783Z,11.00
2019-05-13T16:47:57.290Z,10.90
2019-05-13T16:50:41.861Z,10.90
2019-05-13T16:53:31.801Z,10.80
2019-05-13T16:56:27.902Z,10.70
2019-05-13T16:59:13.288Z,10.70
2019-05-13T17:02:04.609Z,10.60
2019-05-13T17:04:57.769Z,10.60
2019-05-13T17:07:47.996Z,10.50
2019-05-13T17:10:38.130Z,10.50
2019-05-13T17:13:28.484Z,10.40
2019-05-13T17:16:21.187Z,10.30
2019-05-13T17:19:11.995Z,10.30
2019-05-13T17:22:02.551Z,10.20
2019-05-13T17:24:53.171Z,10.20
2019-05-13T17:27:43.005Z,10.10
2019-05-13T17:30:33.331Z,10.10
2019-05-13T17:33:23.161Z,10.00
2019-05-13T17:36:13.174Z,9.90
2019-05-13T17:39:14.294Z,9.90
2019-05-13T17:42:04.414Z,9.80
2019-05-13T17:44:54.769Z,9.70
2019-05-13T17:47:44.719Z,9.70
2019-05-13T17:50:34.304Z,9.60
2019-05-13T17:53:24.309Z,9.60
2019-05-13T17:56:15.529Z,9.50
2019-05-13T17:59:06.754Z,9.40
2019-05-13T18:01:57.490Z,9.40
2019-05-13T18:04:48.094Z,9.30
2019-05-13T18:07:37.519Z,9.30
2019-05-13T18:10:27.349Z,9.20
2019-05-13T18:13:17.489Z,9.20
2019-05-13T18:16:07.830Z,9.10
2019-05-13T18:18:57.430Z,9.10
2019-05-13T18:21:47.109Z,9.10
2019-05-13T18:24:36.654Z,9.10
2019-05-13T18:27:27.410Z,9.10
2019-05-13T18:30:17.649Z,9.00
2019-05-13T18:33:07.575Z,9.00
2019-05-13T18:35:57.284Z,9.00
2019-05-13T18:38:46.629Z,9.00
2019-05-13T18:41:36.398Z,9.00
2019-05-13T18:44:25.974Z,9.00
2019-05-13T18:47:16.144Z,9.00
2019-05-13T18:50:06.649Z,9.00
2019-05-13T18:52:57.329Z,8.90
2019-05-13T18:55:48.238Z,8.90
2019-05-13T18:58:37.810Z,8.90
2019-05-13T19:01:27.410Z,8.90
2019-05-13T19:04:17.429Z,8.90
2019-05-13T19:07:07.814Z,8.90
2019-05-13T19:09:57.805Z,8.90
2019-05-13T19:12:47.964Z,8.80
2019-05-13T19:15:37.654Z,8.90
2019-05-13T19:18:28.849Z,8.80
2019-05-13T19:21:18.325Z,8.90
2019-05-13T19:24:10.450Z,8.80
2019-05-13T19:27:01.940Z,8.80
2019-05-13T19:29:52.361Z,8.80
2019-05-13T19:32:42.304Z,8.80
2019-05-13T19:35:32.246Z,8.80
2019-05-13T19:38:21.812Z,8.80
2019-05-13T19:41:11.731Z,8.80
2019-05-13T19:44:02.704Z,8.80
2019-05-13T19:46:52.418Z,8.80
2019-05-13T19:49:46.237Z,8.80
2019-05-13T19:52:33.890Z,8.70
2019-05-13T19:55:23.354Z,8.80
2019-05-13T19:58:13.674Z,8.70
2019-05-13T20:01:04.050Z,8.70
2019-05-13T20:03:54.180Z,8.70
2019-05-13T20:06:44.215Z,8.70
2019-05-13T20:09:34.230Z,8.70
2019-05-13T20:12:25.649Z,8.70
2019-05-13T20:15:16.504Z,8.70
2019-05-13T20:18:06.330Z,8.70
2019-05-13T20:20:56.310Z,8.70
2019-05-13T20:23:46.764Z,8.70
2019-05-13T20:26:36.299Z,8.70
2019-05-13T20:29:26.130Z,8.70
2019-05-13T20:32:15.971Z,8.70
2019-05-13T20:35:06.613Z,8.70
2019-05-13T20:37:56.470Z,8.70
2019-05-13T20:40:46.969Z,8.70
2019-05-13T20:43:51.882Z,8.70
2019-05-13T20:46:42.256Z,8.70
2019-05-13T20:49:33.500Z,8.60
2019-05-13T20:52:23.730Z,8.60
2019-05-13T20:55:14.069Z,8.60
2019-05-13T20:58:04.090Z,8.60
2019-05-13T21:00:53.887Z,8.60
2019-05-13T21:03:44.047Z,8.60
2019-05-13T21:06:35.425Z,8.50
2019-05-13T21:09:26.279Z,8.50
2019-05-13T21:12:16.179Z,8.50
2019-05-13T21:15:08.855Z,8.50
2019-05-13T21:17:58.361Z,8.50
2019-05-13T21:20:48.381Z,8.50
2019-05-13T21:23:38.549Z,8.40
2019-05-13T21:26:28.924Z,8.40
2019-05-13T21:29:18.453Z,8.30
2019-05-13T21:32:08.821Z,8.30
2019-05-13T21:34:58.385Z,8.20
2019-05-13T21:37:48.317Z,8.10
2019-05-13T21:40:37.909Z,8.00
2019-05-13T21:43:27.934Z,7.90
2019-05-13T21:46:17.869Z,7.90
2019-05-13T21:49:07.684Z,7.80
2019-05-13T21:51:57.569Z,7.80
2019-05-13T21:54:47.640Z,7.70
2019-05-13T21:57:37.650Z,7.70
2019-05-13T22:00:32.220Z,7.70
2019-05-13T22:03:22.065Z,7.70
2019-05-13T22:06:12.213Z,7.70
2019-05-13T22:09:02.769Z,7.80
2019-05-13T22:11:53.139Z,7.80
2019-05-13T22:14:43.254Z,7.80
2019-05-13T22:17:33.704Z,7.80
2019-05-13T22:20:24.056Z,7.80
2019-05-13T22:23:13.730Z,7.80
2019-05-13T22:26:04.555Z,7.80
2019-05-13T22:28:55.729Z,7.80
2019-05-13T22:31:46.214Z,7.90
2019-05-13T22:34:36.057Z,7.90
2019-05-13T22:37:26.360Z,7.90
2019-05-13T22:40:16.385Z,7.90
2019-05-13T22:43:07.569Z,7.90
2019-05-13T22:45:57.064Z,7.90
2019-05-13T22:48:46.476Z,7.90
2019-05-13T22:51:36.848Z,8.00
2019-05-13T22:54:26.609Z,7.90
2019-05-13T22:57:16.039Z,8.00
2019-05-13T23:00:06.309Z,8.00
2019-05-13T23:02:57.544Z,8.00
2019-05-13T23:05:47.465Z,8.00
2019-05-13T23:08:37.214Z,8.00
2019-05-13T23:11:26.874Z,8.10
2019-05-13T23:14:17.148Z,8.00
2019-05-13T23:17:07.255Z,8.10
2019-05-13T23:19:56.978Z,8.10
2019-05-13T23:22:46.849Z,8.10
2019-05-13T23:25:39.947Z,8.00
2019-05-13T23:28:32.251Z,8.00
2019-05-13T23:31:22.595Z,8.00
2019-05-13T23:34:12.227Z,8.10
2019-05-13T23:37:02.304Z,8.00
2019-05-13T23:39:52.689Z,8.00
2019-05-13T23:42:42.725Z,8.00
2019-05-13T23:45:32.849Z,8.00
2019-05-13T23:48:22.640Z,8.00
2019-05-13T23:51:12.981Z,8.00
2019-05-13T23:54:03.250Z,8.00
2019-05-13T23:56:53.179Z,8.00
2019-05-13T23:59:43.524Z,8.00
